sensor_id;sensor_type;location;lat;lon;timestamp;P1;durP1;ratioP1;P2;durP2;ratioP2
19113;SDS011;9689;51.052;13.772;2023-02-03T00:01:01;10.38;;;4.05;;
19113;SDS011;9689;51.052;13.772;2023-02-03T00:06:02;21.40;;;3.85;;
19113;SDS011;9689;51.052;13.772;2023-02-03T00:11:05;8.20;;;3.53;;
19113;SDS011;9689;51.052;13.772;2023-02-03T00:16:06;10.07;;;3.10;;
19113;SDS011;9689;51.052;13.772;2023-02-03T00:21:07;11.93;;;3.47;;
19113;SDS011;9689;51.052;13.772;2023-02-03T00:26:09;11.45;;;3.50;;
19113;SDS011;9689;51.052;13.772;2023-02-03T00:31:14;12.57;;;2.67;;
19113;SDS011;9689;51.052;13.772;2023-02-03T00:36:17;10.10;;;3.20;;
19113;SDS011;9689;51.052;13.772;2023-02-03T00:41:20;12.43;;;3.40;;
19113;SDS011;9689;51.052;13.772;2023-02-03T00:46:22;9.90;;;3.30;;
19113;SDS011;9689;51.052;13.772;2023-02-03T00:51:23;14.73;;;3.45;;
19113;SDS011;9689;51.052;13.772;2023-02-03T00:56:27;15.20;;;4.03;;
19113;SDS011;9689;51.052;13.772;2023-02-03T01:01:28;10.93;;;3.95;;
19113;SDS011;9689;51.052;13.772;2023-02-03T01:06:28;14.57;;;3.90;;
19113;SDS011;9689;51.052;13.772;2023-02-03T01:11:31;13.23;;;3.55;;
19113;SDS011;9689;51.052;13.772;2023-02-03T01:16:32;9.68;;;3.15;;
19113;SDS011;9689;51.052;13.772;2023-02-03T01:21:36;11.35;;;2.60;;
19113;SDS011;9689;51.052;13.772;2023-02-03T01:26:38;9.90;;;2.97;;
19113;SDS011;9689;51.052;13.772;2023-02-03T01:31:39;17.13;;;3.47;;
19113;SDS011;9689;51.052;13.772;2023-02-03T01:36:41;15.02;;;2.58;;
19113;SDS011;9689;51.052;13.772;2023-02-03T01:41:43;7.13;;;2.10;;
19113;SDS011;9689;51.052;13.772;2023-02-03T01:46:45;12.10;;;2.22;;
19113;SDS011;9689;51.052;13.772;2023-02-03T01:51:48;7.80;;;1.95;;
19113;SDS011;9689;51.052;13.772;2023-02-03T01:56:53;15.25;;;2.00;;
19113;SDS011;9689;51.052;13.772;2023-02-03T02:01:58;9.68;;;1.70;;
19113;SDS011;9689;51.052;13.772;2023-02-03T02:07:01;9.25;;;2.10;;
19113;SDS011;9689;51.052;13.772;2023-02-03T02:12:04;6.03;;;2.05;;
19113;SDS011;9689;51.052;13.772;2023-02-03T02:17:08;3.85;;;1.73;;
19113;SDS011;9689;51.052;13.772;2023-02-03T02:22:18;8.73;;;2.25;;
19113;SDS011;9689;51.052;13.772;2023-02-03T02:27:29;8.98;;;2.40;;
19113;SDS011;9689;51.052;13.772;2023-02-03T02:32:51;7.30;;;2.00;;
19113;SDS011;9689;51.052;13.772;2023-02-03T02:38:01;10.75;;;2.47;;
19113;SDS011;9689;51.052;13.772;2023-02-03T02:43:07;10.90;;;2.72;;
19113;SDS011;9689;51.052;13.772;2023-02-03T02:48:16;14.63;;;2.80;;
19113;SDS011;9689;51.052;13.772;2023-02-03T02:53:23;8.32;;;2.63;;
19113;SDS011;9689;51.052;13.772;2023-02-03T02:58:26;11.30;;;2.63;;
19113;SDS011;9689;51.052;13.772;2023-02-03T03:03:32;6.63;;;2.28;;
19113;SDS011;9689;51.052;13.772;2023-02-03T03:08:34;7.22;;;2.97;;
19113;SDS011;9689;51.052;13.772;2023-02-03T03:13:41;7.18;;;3.20;;
19113;SDS011;9689;51.052;13.772;2023-02-03T03:18:49;5.60;;;3.00;;
19113;SDS011;9689;51.052;13.772;2023-02-03T03:23:56;11.88;;;2.80;;
19113;SDS011;9689;51.052;13.772;2023-02-03T03:29:02;12.05;;;2.70;;
19113;SDS011;9689;51.052;13.772;2023-02-03T03:34:11;6.85;;;3.20;;
19113;SDS011;9689;51.052;13.772;2023-02-03T03:39:14;8.90;;;3.08;;
19113;SDS011;9689;51.052;13.772;2023-02-03T03:44:21;7.70;;;2.50;;
19113;SDS011;9689;51.052;13.772;2023-02-03T03:49:28;6.97;;;3.20;;
19113;SDS011;9689;51.052;13.772;2023-02-03T03:54:34;8.80;;;3.17;;
19113;SDS011;9689;51.052;13.772;2023-02-03T03:59:37;6.03;;;2.70;;
19113;SDS011;9689;51.052;13.772;2023-02-03T04:04:42;10.18;;;3.08;;
19113;SDS011;9689;51.052;13.772;2023-02-03T04:09:46;8.63;;;2.90;;
19113;SDS011;9689;51.052;13.772;2023-02-03T04:14:47;6.68;;;3.33;;
19113;SDS011;9689;51.052;13.772;2023-02-03T04:19:49;7.95;;;3.75;;
19113;SDS011;9689;51.052;13.772;2023-02-03T04:24:50;9.40;;;5.40;;
19113;SDS011;9689;51.052;13.772;2023-02-03T04:29:51;8.88;;;5.28;;
19113;SDS011;9689;51.052;13.772;2023-02-03T04:34:53;8.30;;;5.05;;
19113;SDS011;9689;51.052;13.772;2023-02-03T04:39:53;8.32;;;4.55;;
19113;SDS011;9689;51.052;13.772;2023-02-03T04:44:54;6.45;;;4.38;;
19113;SDS011;9689;51.052;13.772;2023-02-03T04:49:56;6.38;;;4.57;;
19113;SDS011;9689;51.052;13.772;2023-02-03T04:54:57;7.82;;;5.43;;
19113;SDS011;9689;51.052;13.772;2023-02-03T04:59:58;9.38;;;5.35;;
19113;SDS011;9689;51.052;13.772;2023-02-03T05:05:00;8.25;;;5.30;;
19113;SDS011;9689;51.052;13.772;2023-02-03T05:10:00;9.10;;;5.57;;
19113;SDS011;9689;51.052;13.772;2023-02-03T05:15:01;12.50;;;5.38;;
19113;SDS011;9689;51.052;13.772;2023-02-03T05:20:03;6.70;;;4.60;;
19113;SDS011;9689;51.052;13.772;2023-02-03T05:25:05;8.10;;;5.15;;
19113;SDS011;9689;51.052;13.772;2023-02-03T05:30:07;7.85;;;5.40;;
19113;SDS011;9689;51.052;13.772;2023-02-03T05:35:10;9.40;;;6.10;;
19113;SDS011;9689;51.052;13.772;2023-02-03T05:40:11;14.82;;;6.30;;
19113;SDS011;9689;51.052;13.772;2023-02-03T05:45:30;12.90;;;6.60;;
19113;SDS011;9689;51.052;13.772;2023-02-03T05:50:32;10.45;;;5.80;;
19113;SDS011;9689;51.052;13.772;2023-02-03T05:55:39;9.80;;;6.00;;
19113;SDS011;9689;51.052;13.772;2023-02-03T06:00:40;8.23;;;5.65;;
19113;SDS011;9689;51.052;13.772;2023-02-03T06:05:42;10.32;;;6.07;;
19113;SDS011;9689;51.052;13.772;2023-02-03T06:10:43;11.27;;;6.68;;
19113;SDS011;9689;51.052;13.772;2023-02-03T06:15:43;9.18;;;6.35;;
19113;SDS011;9689;51.052;13.772;2023-02-03T06:20:45;15.15;;;6.82;;
19113;SDS011;9689;51.052;13.772;2023-02-03T06:25:48;9.73;;;5.93;;
19113;SDS011;9689;51.052;13.772;2023-02-03T06:30:51;8.93;;;5.93;;
19113;SDS011;9689;51.052;13.772;2023-02-03T06:35:53;7.30;;;4.80;;
19113;SDS011;9689;51.052;13.772;2023-02-03T06:40:54;7.47;;;4.70;;
19113;SDS011;9689;51.052;13.772;2023-02-03T06:45:55;7.90;;;5.22;;
19113;SDS011;9689;51.052;13.772;2023-02-03T06:50:57;9.73;;;5.40;;
19113;SDS011;9689;51.052;13.772;2023-02-03T06:55:58;11.80;;;5.30;;
19113;SDS011;9689;51.052;13.772;2023-02-03T07:01:03;11.38;;;6.07;;
19113;SDS011;9689;51.052;13.772;2023-02-03T07:06:07;9.27;;;5.47;;
19113;SDS011;9689;51.052;13.772;2023-02-03T07:11:08;8.80;;;5.18;;
19113;SDS011;9689;51.052;13.772;2023-02-03T07:16:10;15.30;;;5.97;;
19113;SDS011;9689;51.052;13.772;2023-02-03T07:21:12;10.45;;;5.20;;
19113;SDS011;9689;51.052;13.772;2023-02-03T07:26:14;7.22;;;4.53;;
19113;SDS011;9689;51.052;13.772;2023-02-03T07:31:15;7.55;;;4.00;;
19113;SDS011;9689;51.052;13.772;2023-02-03T07:36:18;8.18;;;4.10;;
19113;SDS011;9689;51.052;13.772;2023-02-03T07:41:18;5.00;;;3.75;;
19113;SDS011;9689;51.052;13.772;2023-02-03T07:46:19;6.55;;;3.50;;
19113;SDS011;9689;51.052;13.772;2023-02-03T07:51:21;5.28;;;3.33;;
19113;SDS011;9689;51.052;13.772;2023-02-03T07:56:22;5.55;;;3.38;;
19113;SDS011;9689;51.052;13.772;2023-02-03T08:01:23;7.50;;;3.22;;
19113;SDS011;9689;51.052;13.772;2023-02-03T08:06:25;7.97;;;3.70;;
19113;SDS011;9689;51.052;13.772;2023-02-03T08:11:26;8.00;;;3.88;;
19113;SDS011;9689;51.052;13.772;2023-02-03T08:16:26;4.68;;;3.08;;
19113;SDS011;9689;51.052;13.772;2023-02-03T08:21:28;8.52;;;3.50;;
19113;SDS011;9689;51.052;13.772;2023-02-03T08:26:30;4.20;;;2.60;;
19113;SDS011;9689;51.052;13.772;2023-02-03T08:31:31;4.10;;;2.95;;
19113;SDS011;9689;51.052;13.772;2023-02-03T08:36:33;4.80;;;3.08;;
19113;SDS011;9689;51.052;13.772;2023-02-03T08:41:35;5.13;;;3.10;;
19113;SDS011;9689;51.052;13.772;2023-02-03T08:46:35;7.82;;;3.17;;
19113;SDS011;9689;51.052;13.772;2023-02-03T08:51:43;3.53;;;2.65;;
19113;SDS011;9689;51.052;13.772;2023-02-03T08:56:45;5.22;;;2.45;;
19113;SDS011;9689;51.052;13.772;2023-02-03T09:01:46;9.75;;;2.95;;
19113;SDS011;9689;51.052;13.772;2023-02-03T09:06:48;8.75;;;2.42;;
19113;SDS011;9689;51.052;13.772;2023-02-03T09:11:48;4.78;;;2.67;;
19113;SDS011;9689;51.052;13.772;2023-02-03T09:16:49;7.05;;;3.40;;
19113;SDS011;9689;51.052;13.772;2023-02-03T09:21:51;4.32;;;3.08;;
19113;SDS011;9689;51.052;13.772;2023-02-03T09:26:52;8.63;;;3.40;;
19113;SDS011;9689;51.052;13.772;2023-02-03T09:31:53;6.80;;;3.50;;
19113;SDS011;9689;51.052;13.772;2023-02-03T09:36:55;5.70;;;3.60;;
19113;SDS011;9689;51.052;13.772;2023-02-03T09:42:05;5.43;;;3.25;;
19113;SDS011;9689;51.052;13.772;2023-02-03T09:47:15;5.05;;;3.40;;
19113;SDS011;9689;51.052;13.772;2023-02-03T09:52:21;6.68;;;3.88;;
19113;SDS011;9689;51.052;13.772;2023-02-03T09:57:25;6.82;;;3.95;;
19113;SDS011;9689;51.052;13.772;2023-02-03T10:02:30;11.68;;;3.88;;
19113;SDS011;9689;51.052;13.772;2023-02-03T10:07:46;11.65;;;3.88;;
19113;SDS011;9689;51.052;13.772;2023-02-03T10:13:01;10.45;;;3.50;;
19113;SDS011;9689;51.052;13.772;2023-02-03T10:18:12;4.90;;;3.28;;
19113;SDS011;9689;51.052;13.772;2023-02-03T10:23:21;8.55;;;3.78;;
19113;SDS011;9689;51.052;13.772;2023-02-03T10:28:29;5.50;;;3.42;;
19113;SDS011;9689;51.052;13.772;2023-02-03T10:33:32;8.95;;;3.10;;
19113;SDS011;9689;51.052;13.772;2023-02-03T10:38:37;4.95;;;3.10;;
19113;SDS011;9689;51.052;13.772;2023-02-03T10:43:46;4.97;;;3.38;;
19113;SDS011;9689;51.052;13.772;2023-02-03T10:48:51;8.57;;;3.40;;
19113;SDS011;9689;51.052;13.772;2023-02-03T10:53:53;7.63;;;3.83;;
19113;SDS011;9689;51.052;13.772;2023-02-03T10:58:54;5.53;;;3.58;;
19113;SDS011;9689;51.052;13.772;2023-02-03T11:03:57;9.90;;;3.75;;
19113;SDS011;9689;51.052;13.772;2023-02-03T11:09:01;7.88;;;3.75;;
19113;SDS011;9689;51.052;13.772;2023-02-03T11:14:20;4.57;;;2.75;;
19113;SDS011;9689;51.052;13.772;2023-02-03T11:19:21;7.90;;;2.75;;
19113;SDS011;9689;51.052;13.772;2023-02-03T11:24:23;5.25;;;1.90;;
19113;SDS011;9689;51.052;13.772;2023-02-03T11:29:28;6.32;;;2.47;;
19113;SDS011;9689;51.052;13.772;2023-02-03T11:34:31;3.95;;;2.35;;
19113;SDS011;9689;51.052;13.772;2023-02-03T11:39:37;5.55;;;2.35;;
19113;SDS011;9689;51.052;13.772;2023-02-03T11:44:38;6.53;;;2.42;;
19113;SDS011;9689;51.052;13.772;2023-02-03T11:55:11;3.85;;;1.98;;
19113;SDS011;9689;51.052;13.772;2023-02-03T12:00:22;2.80;;;1.92;;
19113;SDS011;9689;51.052;13.772;2023-02-03T12:05:35;2.95;;;1.90;;
19113;SDS011;9689;51.052;13.772;2023-02-03T12:10:48;6.55;;;1.52;;
19113;SDS011;9689;51.052;13.772;2023-02-03T12:16:02;1.77;;;1.50;;
19113;SDS011;9689;51.052;13.772;2023-02-03T12:21:20;4.82;;;1.60;;
19113;SDS011;9689;51.052;13.772;2023-02-03T12:26:36;1.85;;;1.20;;
19113;SDS011;9689;51.052;13.772;2023-02-03T12:31:43;0.75;;;0.68;;
19113;SDS011;9689;51.052;13.772;2023-02-03T12:36:49;4.70;;;1.20;;
19113;SDS011;9689;51.052;13.772;2023-02-03T12:41:58;3.25;;;1.10;;
19113;SDS011;9689;51.052;13.772;2023-02-03T12:47:03;1.90;;;1.05;;
19113;SDS011;9689;51.052;13.772;2023-02-03T12:52:15;4.57;;;0.95;;
19113;SDS011;9689;51.052;13.772;2023-02-03T12:57:24;2.88;;;1.45;;
19113;SDS011;9689;51.052;13.772;2023-02-03T13:02:31;4.78;;;1.30;;
19113;SDS011;9689;51.052;13.772;2023-02-03T13:07:42;4.47;;;2.38;;
19113;SDS011;9689;51.052;13.772;2023-02-03T13:12:50;3.85;;;1.65;;
19113;SDS011;9689;51.052;13.772;2023-02-03T13:17:56;4.93;;;1.80;;
19113;SDS011;9689;51.052;13.772;2023-02-03T13:23:02;9.82;;;1.73;;
19113;SDS011;9689;51.052;13.772;2023-02-03T13:28:08;9.07;;;1.33;;
19113;SDS011;9689;51.052;13.772;2023-02-03T13:38:48;5.30;;;1.02;;
19113;SDS011;9689;51.052;13.772;2023-02-03T13:44:06;7.00;;;1.65;;
19113;SDS011;9689;51.052;13.772;2023-02-03T13:49:15;9.20;;;1.52;;
19113;SDS011;9689;51.052;13.772;2023-02-03T13:54:22;11.15;;;2.30;;
19113;SDS011;9689;51.052;13.772;2023-02-03T13:59:30;13.90;;;1.77;;
19113;SDS011;9689;51.052;13.772;2023-02-03T14:04:50;22.45;;;3.17;;
19113;SDS011;9689;51.052;13.772;2023-02-03T14:15:21;8.15;;;2.28;;
19113;SDS011;9689;51.052;13.772;2023-02-03T14:20:33;20.92;;;3.20;;
19113;SDS011;9689;51.052;13.772;2023-02-03T14:25:51;14.73;;;2.50;;
19113;SDS011;9689;51.052;13.772;2023-02-03T14:31:04;38.25;;;3.25;;
19113;SDS011;9689;51.052;13.772;2023-02-03T14:36:24;22.35;;;3.40;;
19113;SDS011;9689;51.052;13.772;2023-02-03T14:41:33;17.98;;;3.00;;
19113;SDS011;9689;51.052;13.772;2023-02-03T14:46:49;13.85;;;2.40;;
19113;SDS011;9689;51.052;13.772;2023-02-03T14:52:07;11.60;;;2.05;;
19113;SDS011;9689;51.052;13.772;2023-02-03T14:57:20;21.13;;;2.50;;
19113;SDS011;9689;51.052;13.772;2023-02-03T15:02:36;12.93;;;2.20;;
19113;SDS011;9689;51.052;13.772;2023-02-03T15:08:32;13.85;;;2.13;;
19113;SDS011;9689;51.052;13.772;2023-02-03T15:13:41;15.27;;;2.53;;
19113;SDS011;9689;51.052;13.772;2023-02-03T15:18:43;19.50;;;2.70;;
19113;SDS011;9689;51.052;13.772;2023-02-03T15:23:44;18.13;;;2.40;;
19113;SDS011;9689;51.052;13.772;2023-02-03T15:28:53;12.18;;;2.55;;
19113;SDS011;9689;51.052;13.772;2023-02-03T15:33:57;20.15;;;2.75;;
19113;SDS011;9689;51.052;13.772;2023-02-03T15:39:04;16.83;;;2.60;;
19113;SDS011;9689;51.052;13.772;2023-02-03T15:44:20;20.50;;;2.53;;
19113;SDS011;9689;51.052;13.772;2023-02-03T15:49:29;15.10;;;3.25;;
19113;SDS011;9689;51.052;13.772;2023-02-03T15:54:38;24.20;;;3.03;;
19113;SDS011;9689;51.052;13.772;2023-02-03T15:59:45;20.73;;;3.20;;
19113;SDS011;9689;51.052;13.772;2023-02-03T16:04:54;22.45;;;3.13;;
19113;SDS011;9689;51.052;13.772;2023-02-03T16:09:55;23.92;;;3.88;;
19113;SDS011;9689;51.052;13.772;2023-02-03T16:14:57;23.13;;;2.78;;
19113;SDS011;9689;51.052;13.772;2023-02-03T16:25:27;18.85;;;2.60;;
19113;SDS011;9689;51.052;13.772;2023-02-03T16:30:29;13.40;;;2.63;;
19113;SDS011;9689;51.052;13.772;2023-02-03T16:35:49;18.08;;;3.05;;
19113;SDS011;9689;51.052;13.772;2023-02-03T16:41:08;20.00;;;2.90;;
19113;SDS011;9689;51.052;13.772;2023-02-03T16:46:33;15.50;;;2.35;;
19113;SDS011;9689;51.052;13.772;2023-02-03T16:51:53;19.98;;;2.45;;
19113;SDS011;9689;51.052;13.772;2023-02-03T16:56:53;25.52;;;3.88;;
19113;SDS011;9689;51.052;13.772;2023-02-03T17:01:57;23.55;;;3.38;;
19113;SDS011;9689;51.052;13.772;2023-02-03T17:06:59;18.55;;;2.90;;
19113;SDS011;9689;51.052;13.772;2023-02-03T17:12:01;26.13;;;3.13;;
19113;SDS011;9689;51.052;13.772;2023-02-03T17:17:02;14.10;;;2.47;;
19113;SDS011;9689;51.052;13.772;2023-02-03T17:22:04;22.75;;;3.63;;
19113;SDS011;9689;51.052;13.772;2023-02-03T17:27:05;22.13;;;4.03;;
19113;SDS011;9689;51.052;13.772;2023-02-03T17:32:06;17.27;;;2.45;;
19113;SDS011;9689;51.052;13.772;2023-02-03T17:37:08;23.20;;;3.30;;
19113;SDS011;9689;51.052;13.772;2023-02-03T17:42:09;24.17;;;2.88;;
19113;SDS011;9689;51.052;13.772;2023-02-03T17:47:27;23.90;;;3.50;;
19113;SDS011;9689;51.052;13.772;2023-02-03T17:52:47;25.83;;;3.33;;
19113;SDS011;9689;51.052;13.772;2023-02-03T17:58:02;26.13;;;2.83;;
19113;SDS011;9689;51.052;13.772;2023-02-03T18:03:02;16.23;;;2.65;;
19113;SDS011;9689;51.052;13.772;2023-02-03T18:08:05;21.50;;;2.97;;
19113;SDS011;9689;51.052;13.772;2023-02-03T18:13:14;17.40;;;3.75;;
19113;SDS011;9689;51.052;13.772;2023-02-03T18:18:16;19.80;;;3.30;;
19113;SDS011;9689;51.052;13.772;2023-02-03T18:23:20;20.25;;;2.75;;
19113;SDS011;9689;51.052;13.772;2023-02-03T18:28:21;19.90;;;2.38;;
19113;SDS011;9689;51.052;13.772;2023-02-03T18:33:22;16.88;;;2.75;;
19113;SDS011;9689;51.052;13.772;2023-02-03T18:38:24;18.08;;;3.15;;
19113;SDS011;9689;51.052;13.772;2023-02-03T18:43:25;22.70;;;3.03;;
19113;SDS011;9689;51.052;13.772;2023-02-03T18:48:26;18.25;;;2.92;;
19113;SDS011;9689;51.052;13.772;2023-02-03T18:53:28;24.77;;;2.92;;
19113;SDS011;9689;51.052;13.772;2023-02-03T18:58:30;23.70;;;3.88;;
19113;SDS011;9689;51.052;13.772;2023-02-03T19:03:31;20.85;;;2.53;;
19113;SDS011;9689;51.052;13.772;2023-02-03T19:08:34;24.05;;;3.60;;
19113;SDS011;9689;51.052;13.772;2023-02-03T19:13:34;27.05;;;3.42;;
19113;SDS011;9689;51.052;13.772;2023-02-03T19:18:35;20.63;;;2.67;;
19113;SDS011;9689;51.052;13.772;2023-02-03T19:23:37;17.42;;;3.00;;
19113;SDS011;9689;51.052;13.772;2023-02-03T19:28:38;17.08;;;2.80;;
19113;SDS011;9689;51.052;13.772;2023-02-03T19:33:39;23.10;;;2.97;;
19113;SDS011;9689;51.052;13.772;2023-02-03T19:38:41;18.98;;;2.60;;
19113;SDS011;9689;51.052;13.772;2023-02-03T19:43:42;22.45;;;2.50;;
19113;SDS011;9689;51.052;13.772;2023-02-03T19:48:46;20.63;;;3.40;;
19113;SDS011;9689;51.052;13.772;2023-02-03T19:53:48;22.70;;;3.17;;
19113;SDS011;9689;51.052;13.772;2023-02-03T19:58:51;23.67;;;3.25;;
19113;SDS011;9689;51.052;13.772;2023-02-03T20:03:52;17.83;;;3.03;;
19113;SDS011;9689;51.052;13.772;2023-02-03T20:08:54;21.60;;;3.53;;
19113;SDS011;9689;51.052;13.772;2023-02-03T20:13:55;20.23;;;3.35;;
19113;SDS011;9689;51.052;13.772;2023-02-03T20:18:56;21.60;;;3.08;;
19113;SDS011;9689;51.052;13.772;2023-02-03T20:24:00;13.80;;;2.35;;
19113;SDS011;9689;51.052;13.772;2023-02-03T20:29:00;21.67;;;3.20;;
19113;SDS011;9689;51.052;13.772;2023-02-03T20:34:01;20.58;;;3.10;;
19113;SDS011;9689;51.052;13.772;2023-02-03T20:39:04;17.30;;;2.58;;
19113;SDS011;9689;51.052;13.772;2023-02-03T20:44:07;21.83;;;3.00;;
19113;SDS011;9689;51.052;13.772;2023-02-03T20:49:09;31.23;;;3.83;;
19113;SDS011;9689;51.052;13.772;2023-02-03T20:54:13;31.65;;;4.10;;
19113;SDS011;9689;51.052;13.772;2023-02-03T20:59:17;24.65;;;3.40;;
19113;SDS011;9689;51.052;13.772;2023-02-03T21:04:18;24.05;;;3.20;;
19113;SDS011;9689;51.052;13.772;2023-02-03T21:09:38;27.05;;;3.35;;
19113;SDS011;9689;51.052;13.772;2023-02-03T21:14:40;18.20;;;3.63;;
19113;SDS011;9689;51.052;13.772;2023-02-03T21:19:41;26.42;;;2.88;;
19113;SDS011;9689;51.052;13.772;2023-02-03T21:24:46;25.40;;;3.53;;
19113;SDS011;9689;51.052;13.772;2023-02-03T21:29:49;26.65;;;2.63;;
19113;SDS011;9689;51.052;13.772;2023-02-03T21:34:54;19.58;;;3.05;;
19113;SDS011;9689;51.052;13.772;2023-02-03T21:39:56;32.15;;;3.90;;
19113;SDS011;9689;51.052;13.772;2023-02-03T21:44:56;24.50;;;3.00;;
19113;SDS011;9689;51.052;13.772;2023-02-03T21:49:58;20.42;;;2.72;;
19113;SDS011;9689;51.052;13.772;2023-02-03T21:55:04;14.77;;;2.08;;
19113;SDS011;9689;51.052;13.772;2023-02-03T22:05:37;19.58;;;2.15;;
19113;SDS011;9689;51.052;13.772;2023-02-03T22:10:39;16.52;;;2.90;;
19113;SDS011;9689;51.052;13.772;2023-02-03T22:15:40;32.35;;;2.97;;
19113;SDS011;9689;51.052;13.772;2023-02-03T22:20:41;24.88;;;3.28;;
19113;SDS011;9689;51.052;13.772;2023-02-03T22:25:43;25.10;;;3.97;;
19113;SDS011;9689;51.052;13.772;2023-02-03T22:30:44;25.13;;;3.15;;
19113;SDS011;9689;51.052;13.772;2023-02-03T22:35:45;20.83;;;4.63;;
19113;SDS011;9689;51.052;13.772;2023-02-03T22:40:47;15.18;;;2.38;;
19113;SDS011;9689;51.052;13.772;2023-02-03T22:45:48;22.45;;;2.90;;
19113;SDS011;9689;51.052;13.772;2023-02-03T22:50:48;17.33;;;2.28;;
19113;SDS011;9689;51.052;13.772;2023-02-03T22:55:50;23.20;;;2.95;;
19113;SDS011;9689;51.052;13.772;2023-02-03T23:00:51;8.57;;;2.13;;
19113;SDS011;9689;51.052;13.772;2023-02-03T23:05:52;17.10;;;1.90;;
19113;SDS011;9689;51.052;13.772;2023-02-03T23:10:56;18.67;;;2.28;;
19113;SDS011;9689;51.052;13.772;2023-02-03T23:15:57;17.70;;;2.53;;
19113;SDS011;9689;51.052;13.772;2023-02-03T23:20:57;14.80;;;2.10;;
19113;SDS011;9689;51.052;13.772;2023-02-03T23:25:59;13.38;;;2.00;;
19113;SDS011;9689;51.052;13.772;2023-02-03T23:31:00;17.38;;;2.00;;
19113;SDS011;9689;51.052;13.772;2023-02-03T23:36:02;17.25;;;3.10;;
19113;SDS011;9689;51.052;13.772;2023-02-03T23:41:04;10.27;;;1.60;;
19113;SDS011;9689;51.052;13.772;2023-02-03T23:46:05;11.50;;;2.05;;
19113;SDS011;9689;51.052;13.772;2023-02-03T23:51:06;17.15;;;2.30;;
19113;SDS011;9689;51.052;13.772;2023-02-03T23:56:08;15.10;;;2.45;;
